Time;durP1;ratioP1;P1;durP2;ratioP2;P2;SDS_P1;SDS_P2;PMS_P1;PMS_P2;Temp;Humidity;BMP_temperature;BMP_pressure;BME280_temperature;BME280_humidity;BME280_pressure;Samples;Min_cycle;Max_cycle;Signal;HPM_P1;HPM_P2
2023/01/10 00:00:30;;;;;;;15.68;2.63;;;7.30;99.90;;;;;;5024489;28;20049;-84
2023/01/10 00:02:56;;;;;;;14.32;2.95;;;7.30;99.90;;;;;;5003477;28;20041;-85
2023/01/10 00:05:22;;;;;;;11.50;2.42;;;7.30;99.90;;;;;;4988899;28;20388;-85
2023/01/10 00:07:48;;;;;;;17.38;2.85;;;7.30;99.90;;;;;;4987782;28;20132;-84
2023/01/10 00:10:14;;;;;;;12.18;3.08;;;7.30;99.90;;;;;;5002580;28;20096;-84
2023/01/10 00:15:23;;;;;;;11.00;2.55;;;7.40;99.90;;;;;;5021935;28;20042;-84
2023/01/10 00:17:49;;;;;;;16.05;2.97;;;7.30;99.90;;;;;;4985970;28;20044;-83
2023/01/10 00:20:15;;;;;;;9.23;2.38;;;7.40;99.90;;;;;;5005696;28;20057;-84
2023/01/10 00:22:41;;;;;;;12.73;2.60;;;7.40;99.90;;;;;;4997770;28;20090;-86
2023/01/10 00:25:07;;;;;;;21.38;3.03;;;7.40;99.90;;;;;;5005644;28;20111;-85
2023/01/10 00:27:34;;;;;;;13.60;2.40;;;7.40;99.90;;;;;;5003442;28;20045;-84
2023/01/10 00:30:07;;;;;;;15.20;2.60;;;7.40;99.90;;;;;;5006203;28;20045;-84
2023/01/10 00:32:33;;;;;;;13.60;3.03;;;7.40;99.90;;;;;;4974136;28;20053;-86
2023/01/10 00:34:58;;;;;;;11.80;2.33;;;7.40;99.90;;;;;;4989005;28;20120;-85
2023/01/10 00:37:24;;;;;;;8.23;1.70;;;7.40;99.90;;;;;;4987119;28;20592;-85
2023/01/10 00:39:50;;;;;;;11.10;1.73;;;7.30;99.90;;;;;;4981650;28;20049;-84
2023/01/10 00:45:00;;;;;;;12.55;2.42;;;7.00;99.90;;;;;;4993653;28;20053;-85
2023/01/10 00:47:25;;;;;;;12.88;2.20;;;7.00;99.90;;;;;;4969958;28;20049;-86
2023/01/10 00:49:51;;;;;;;12.18;2.00;;;6.90;99.90;;;;;;5003691;28;20128;-86
2023/01/10 00:52:17;;;;;;;10.07;2.05;;;6.90;99.90;;;;;;5002075;28;20044;-85
2023/01/10 00:54:43;;;;;;;13.20;2.67;;;6.90;99.90;;;;;;4986438;28;20057;-84
2023/01/10 00:57:08;;;;;;;11.60;2.88;;;6.90;99.90;;;;;;4993743;28;20041;-85
2023/01/10 00:59:34;;;;;;;15.32;3.00;;;6.90;99.90;;;;;;5021771;28;20049;-85
2023/01/10 01:02:00;;;;;;;16.65;3.20;;;7.00;99.90;;;;;;4970728;28;20041;-85
2023/01/10 01:04:26;;;;;;;16.92;3.17;;;7.10;99.90;;;;;;5004890;28;20373;-85
2023/01/10 01:06:51;;;;;;;17.23;2.90;;;7.10;99.90;;;;;;4988817;28;20099;-85
2023/01/10 01:09:17;;;;;;;14.55;3.28;;;7.10;99.90;;;;;;4987475;28;20483;-85
2023/01/10 01:11:43;;;;;;;14.18;3.20;;;7.20;99.90;;;;;;5018751;28;20054;-85
2023/01/10 01:14:08;;;;;;;16.27;3.33;;;7.20;99.90;;;;;;4991436;28;20056;-85
2023/01/10 01:16:34;;;;;;;15.77;3.22;;;7.20;99.90;;;;;;5006111;28;20095;-84
2023/01/10 01:19:00;;;;;;;17.33;3.50;;;7.20;99.90;;;;;;5000585;28;20046;-85
2023/01/10 01:21:27;;;;;;;16.50;3.78;;;7.20;99.90;;;;;;5000426;28;20529;-84
2023/01/10 01:23:56;;;;;;;17.75;3.47;;;7.20;99.90;;;;;;4984573;28;20049;-84
2023/01/10 01:26:25;;;;;;;17.52;2.90;;;7.20;99.90;;;;;;4980297;28;20081;-83
2023/01/10 01:28:51;;;;;;;18.98;3.50;;;7.20;99.90;;;;;;5016582;28;20055;-84
2023/01/10 01:31:17;;;;;;;12.32;2.55;;;7.20;99.90;;;;;;4980794;28;20072;-85
2023/01/10 01:33:42;;;;;;;14.50;2.60;;;7.30;99.90;;;;;;4973787;28;20057;-85
2023/01/10 01:36:12;;;;;;;10.73;2.53;;;7.40;99.90;;;;;;5001558;28;20045;-84
2023/01/10 01:38:39;;;;;;;14.30;2.65;;;7.20;99.90;;;;;;5017037;28;20068;-84
2023/01/10 01:44:02;;;;;;;12.32;2.17;;;7.10;99.90;;;;;;4981249;28;20759;-84
2023/01/10 01:46:28;;;;;;;11.57;2.58;;;7.00;99.90;;;;;;4999927;28;20156;-85
2023/01/10 01:48:54;;;;;;;12.25;2.22;;;7.00;99.90;;;;;;5001962;28;20037;-85
2023/01/10 01:51:25;;;;;;;14.98;2.90;;;6.90;99.90;;;;;;5000690;28;22152;-85
2023/01/10 01:54:12;;;;;;;12.77;2.50;;;6.90;99.90;;;;;;5001238;28;20049;-84
2023/01/10 01:56:46;;;;;;;;;;;6.90;99.90;;;;;;5022012;28;20049;-85
2023/01/10 01:59:23;;;;;;;17.98;2.80;;;6.90;99.90;;;;;;5000918;28;19994;-82
2023/01/10 02:01:54;;;;;;;14.52;2.90;;;6.80;99.90;;;;;;4998895;28;21833;-84
2023/01/10 02:04:33;;;;;;;14.15;2.75;;;6.80;99.90;;;;;;5016514;28;20033;-85
2023/01/10 02:06:59;;;;;;;12.70;3.25;;;6.80;99.90;;;;;;5018586;28;20061;-85
2023/01/10 02:09:38;;;;;;;18.00;3.60;;;6.80;99.90;;;;;;4985014;28;20053;-85
2023/01/10 02:12:04;;;;;;;18.17;3.65;;;6.80;99.90;;;;;;5013685;28;20127;-85
2023/01/10 02:14:32;;;;;;;17.05;3.05;;;6.80;99.90;;;;;;4985720;28;20125;-85
2023/01/10 02:16:58;;;;;;;29.38;4.43;;;6.90;99.90;;;;;;5000522;28;20053;-85
2023/01/10 02:20:00;;;;;;;19.10;4.05;;;6.90;99.90;;;;;;4968362;28;20692;-84
2023/01/10 02:22:45;;;;;;;25.08;4.35;;;7.00;99.90;;;;;;5008964;28;20954;-84
2023/01/10 02:25:30;;;;;;;13.93;3.70;;;7.00;99.90;;;;;;5004381;28;20085;-85
2023/01/10 02:28:33;;;;;;;20.50;3.90;;;7.00;99.90;;;;;;5008304;28;20046;-84
2023/01/10 02:31:25;;;;;;;22.40;3.63;;;7.00;99.90;;;;;;5023031;28;20041;-85
2023/01/10 02:34:12;;;;;;;20.55;3.45;;;7.00;99.90;;;;;;5026796;28;20053;-85
2023/01/10 02:37:09;;;;;;;19.55;4.20;;;7.10;99.90;;;;;;5011469;28;20050;-84
2023/01/10 02:40:06;;;;;;;18.80;4.13;;;7.10;99.90;;;;;;5023170;28;20098;-85
2023/01/10 02:42:59;;;;;;;13.90;3.10;;;7.10;99.90;;;;;;5001804;28;20077;-85
2023/01/10 02:45:46;;;;;;;20.05;4.20;;;7.10;99.90;;;;;;5008140;28;20045;-85
2023/01/10 02:48:12;;;;;;;21.00;4.15;;;7.10;99.90;;;;;;5004114;28;20041;-85
2023/01/10 02:50:41;;;;;;;17.83;3.92;;;7.10;99.90;;;;;;5457541;23;20547;-83
2023/01/10 02:53:15;;;;;;;20.95;3.78;;;7.10;99.90;;;;;;4981412;28;20053;-82
2023/01/10 02:56:19;;;;;;;18.75;3.17;;;7.10;99.90;;;;;;4980031;28;20109;-82
2023/01/10 02:59:06;;;;;;;14.70;3.95;;;7.10;99.90;;;;;;4968680;28;20129;-84
2023/01/10 03:01:48;;;;;;;20.50;3.60;;;7.10;99.90;;;;;;4968654;28;20053;-82
2023/01/10 03:04:26;;;;;;;18.48;3.75;;;7.10;99.90;;;;;;4967497;28;20394;-83
2023/01/10 03:07:26;;;;;;;20.95;4.05;;;7.10;99.90;;;;;;4967058;28;20128;-82
2023/01/10 03:09:55;;;;;;;17.10;3.78;;;7.10;99.90;;;;;;4968840;28;20061;-83
2023/01/10 03:12:39;;;;;;;23.08;3.80;;;7.10;99.90;;;;;;4964954;28;20429;-83
2023/01/10 03:15:06;;;;;;;22.65;3.85;;;7.10;99.90;;;;;;4965790;28;20135;-82
2023/01/10 03:17:33;;;;;;;17.38;4.38;;;7.30;99.90;;;;;;4982370;28;20133;-83
2023/01/10 03:20:05;;;;;;;20.15;4.05;;;5.70;99.90;;;;;;4966123;28;20057;-82
2023/01/10 03:22:34;;;;;;;20.63;4.15;;;7.10;99.90;;;;;;4986674;28;20042;-83
2023/01/10 03:25:02;;;;;;;24.38;4.00;;;7.20;99.90;;;;;;4967690;28;20096;-83
2023/01/10 03:27:51;;;;;;;13.40;3.45;;;7.10;99.90;;;;;;4984918;28;20046;-82
2023/01/10 03:30:35;;;;;;;23.17;4.03;;;7.20;99.90;;;;;;4983135;28;20039;-83
2023/01/10 03:33:02;;;;;;;21.15;3.67;;;7.20;99.90;;;;;;4965432;28;20046;-82
2023/01/10 03:36:07;;;;;;;15.50;3.47;;;7.30;99.90;;;;;;4955770;28;20053;-81
2023/01/10 03:39:03;;;;;;;10.68;2.55;;;7.30;99.90;;;;;;4965495;28;20447;-82
2023/01/10 03:41:35;;;;;;;12.77;3.28;;;7.20;99.90;;;;;;4982184;28;20046;-81
2023/01/10 03:47:28;;;;;;;15.90;3.00;;;7.10;99.90;;;;;;4982817;28;20384;-82
2023/01/10 03:50:00;;;;;;;19.48;3.13;;;7.10;99.90;;;;;;4981268;28;20105;-82
2023/01/10 03:52:27;;;;;;;19.08;3.20;;;7.10;99.90;;;;;;4957760;28;20058;-83
2023/01/10 03:54:52;;;;;;;18.33;3.63;;;7.10;99.90;;;;;;4950067;28;20066;-82
2023/01/10 03:57:23;;;;;;;16.13;4.05;;;7.10;99.90;;;;;;4949214;28;20125;-83
2023/01/10 03:59:53;;;;;;;20.52;3.70;;;7.10;99.90;;;;;;4951044;28;20046;-83
2023/01/10 04:02:19;;;;;;;21.55;3.80;;;6.60;99.90;;;;;;4967293;28;20057;-82
2023/01/10 04:04:45;;;;;;;20.02;3.60;;;7.10;99.90;;;;;;4949257;28;20496;-82
2023/01/10 04:07:11;;;;;;;23.38;3.97;;;7.20;99.90;;;;;;4998587;28;20053;-83
2023/01/10 04:09:37;;;;;;;25.48;3.50;;;6.80;99.90;;;;;;4986013;28;20046;-82
2023/01/10 04:12:03;;;;;;;21.98;3.70;;;7.20;99.90;;;;;;4998367;28;20049;-82
2023/01/10 04:14:31;;;;;;;20.30;3.42;;;7.80;99.90;;;;;;4961381;28;20047;-81
2023/01/10 04:16:57;;;;;;;27.20;4.38;;;7.10;99.90;;;;;;4965815;28;20043;-82
2023/01/10 04:19:23;;;;;;;22.67;3.35;;;7.10;99.90;;;;;;4986713;28;20046;-82
2023/01/10 04:21:49;;;;;;;18.83;3.72;;;7.10;99.90;;;;;;4981216;28;20041;-81
2023/01/10 04:24:14;;;;;;;19.38;3.60;;;7.20;99.90;;;;;;4961621;28;20145;-81
2023/01/10 04:26:40;;;;;;;20.73;4.43;;;7.10;99.90;;;;;;4962603;28;20246;-82
2023/01/10 04:29:06;;;;;;;17.42;4.13;;;7.10;99.90;;;;;;4965042;28;20054;-81
2023/01/10 04:31:32;;;;;;;20.48;3.92;;;7.20;99.90;;;;;;4978621;28;20053;-82
2023/01/10 04:33:57;;;;;;;23.42;3.75;;;7.20;99.90;;;;;;4964793;28;20081;-82
2023/01/10 04:36:23;;;;;;;20.60;3.20;;;7.20;99.90;;;;;;4963986;28;20069;-82
2023/01/10 04:38:49;;;;;;;18.67;3.30;;;7.20;99.90;;;;;;4960010;28;20098;-82
2023/01/10 04:41:15;;;;;;;21.27;3.78;;;7.20;99.90;;;;;;4965051;28;20051;-82
2023/01/10 04:43:41;;;;;;;14.00;2.85;;;7.20;99.90;;;;;;4960198;28;20081;-84
2023/01/10 04:46:06;;;;;;;14.50;3.58;;;7.10;99.90;;;;;;4948549;28;20611;-82
2023/01/10 04:48:33;;;;;;;9.23;2.28;;;7.10;99.90;;;;;;4979829;28;20046;-82
2023/01/10 04:50:59;;;;;;;15.32;3.17;;;7.10;99.90;;;;;;4962313;28;20507;-81
2023/01/10 04:53:24;;;;;;;18.35;4.13;;;7.10;99.90;;;;;;4953860;28;20058;-82
2023/01/10 04:55:51;;;;;;;26.52;3.83;;;;;;;;;;4947061;28;20493;-82
2023/01/10 04:58:16;;;;;;;15.35;2.60;;;7.10;99.90;;;;;;4962683;28;20097;-82
2023/01/10 05:00:42;;;;;;;13.18;3.10;;;7.10;99.90;;;;;;4977659;28;20052;-83
2023/01/10 05:03:08;;;;;;;18.20;2.75;;;7.10;99.90;;;;;;4958783;28;20142;-81
2023/01/10 05:05:33;;;;;;;15.43;3.58;;;7.10;99.90;;;;;;4954976;28;20061;-81
2023/01/10 05:07:59;;;;;;;17.45;3.53;;;7.20;99.90;;;;;;4947867;28;20046;-82
2023/01/10 05:10:25;;;;;;;20.08;3.17;;;7.20;99.90;;;;;;4963433;28;20058;-81
2023/01/10 05:12:51;;;;;;;16.05;3.42;;;7.10;99.90;;;;;;4964663;28;20046;-82
2023/01/10 05:15:19;;;;;;;17.75;3.10;;;7.20;99.90;;;;;;4978154;28;20710;-83
2023/01/10 05:17:45;;;;;;;19.10;3.55;;;7.10;99.90;;;;;;4974730;28;20050;-82
2023/01/10 05:20:12;;;;;;;15.25;3.05;;;8.00;99.90;;;;;;4946171;28;20053;-81
2023/01/10 05:22:38;;;;;;;14.75;3.45;;;7.20;99.90;;;;;;4963496;28;20086;-83
2023/01/10 05:25:04;;;;;;;17.63;3.00;;;7.20;99.90;;;;;;4965437;28;20615;-85
2023/01/10 05:27:30;;;;;;;16.00;3.20;;;7.10;99.90;;;;;;4963055;28;20484;-84
2023/01/10 05:29:56;;;;;;;12.02;3.15;;;7.10;99.90;;;;;;4978339;28;20046;-84
2023/01/10 05:32:22;;;;;;;25.00;4.25;;;7.20;99.90;;;;;;4948048;28;20501;-85
2023/01/10 05:34:48;;;;;;;13.52;3.10;;;7.10;99.90;;;;;;4979834;28;20400;-84
2023/01/10 05:37:13;;;;;;;19.88;3.80;;;7.10;99.90;;;;;;4960220;28;20042;-85
2023/01/10 05:39:40;;;;;;;17.48;3.55;;;7.20;99.90;;;;;;4963608;28;20369;-84
2023/01/10 05:42:06;;;;;;;18.77;3.53;;;7.20;99.90;;;;;;4964178;28;20124;-85
2023/01/10 05:44:32;;;;;;;16.90;3.78;;;7.10;99.90;;;;;;4963367;28;20049;-86
2023/01/10 05:46:57;;;;;;;16.65;3.38;;;7.30;99.90;;;;;;4949189;28;20074;-84
2023/01/10 05:49:23;;;;;;;18.65;3.58;;;7.10;99.90;;;;;;4964315;28;20484;-85
2023/01/10 05:51:49;;;;;;;20.95;3.65;;;7.00;99.90;;;;;;4980229;28;20054;-81
2023/01/10 05:54:15;;;;;;;16.65;3.20;;;5.50;99.90;;;;;;4954261;28;20057;-82
2023/01/10 05:56:41;;;;;;;22.05;3.97;;;7.20;99.90;;;;;;4975987;28;20038;-85
2023/01/10 05:59:07;;;;;;;21.55;3.88;;;7.20;99.90;;;;;;4964144;28;20046;-86
2023/01/10 06:01:33;;;;;;;15.98;3.25;;;7.20;99.90;;;;;;4963868;28;20042;-86
2023/01/10 06:03:59;;;;;;;24.33;4.15;;;7.20;99.90;;;;;;4966410;28;20047;-86
2023/01/10 06:06:28;;;;;;;20.88;4.38;;;7.20;99.90;;;;;;4953249;28;20102;-86
2023/01/10 06:08:55;;;;;;;26.48;4.57;;;7.10;99.90;;;;;;4955701;28;20056;-86
2023/01/10 06:11:28;;;;;;;24.80;4.55;;;7.10;99.90;;;;;;4963992;28;20141;-86
2023/01/10 06:13:57;;;;;;;22.27;4.07;;;7.10;99.90;;;;;;4952276;28;20046;-86
2023/01/10 06:16:25;;;;;;;16.75;3.55;;;7.10;99.90;;;;;;4983424;28;20038;-84
2023/01/10 06:18:51;;;;;;;19.65;3.70;;;5.60;99.90;;;;;;4986605;28;20116;-86
2023/01/10 06:21:20;;;;;;;15.00;3.88;;;5.80;99.90;;;;;;4977316;28;20109;-86
2023/01/10 06:23:46;;;;;;;22.67;3.97;;;7.00;99.90;;;;;;4989026;28;20046;-86
2023/01/10 06:26:17;;;;;;;18.45;3.30;;;6.90;99.90;;;;;;4976341;28;20109;-86
2023/01/10 06:28:43;;;;;;;23.15;3.53;;;7.00;99.90;;;;;;4966990;28;20613;-83
2023/01/10 06:31:09;;;;;;;23.67;4.13;;;7.00;99.90;;;;;;4965990;28;20042;-86
2023/01/10 06:33:37;;;;;;;18.83;3.75;;;7.00;99.90;;;;;;4981319;28;20045;-86
2023/01/10 06:36:04;;;;;;;14.48;3.47;;;7.10;99.90;;;;;;4978130;28;20053;-83
2023/01/10 06:38:29;;;;;;;23.48;4.35;;;7.00;99.90;;;;;;4978281;28;20068;-84
2023/01/10 06:40:55;;;;;;;21.42;4.03;;;7.10;99.90;;;;;;4970557;28;20077;-83
2023/01/10 06:43:21;;;;;;;21.95;3.67;;;7.50;99.90;;;;;;4959367;28;20050;-83
2023/01/10 06:45:47;;;;;;;22.80;3.60;;;7.30;99.90;;;;;;4962510;28;20053;-81
2023/01/10 06:48:12;;;;;;;19.65;3.90;;;7.10;99.90;;;;;;4963030;28;20043;-82
2023/01/10 06:50:39;;;;;;;21.42;3.90;;;7.10;99.90;;;;;;4949559;28;20066;-83
2023/01/10 06:53:04;;;;;;;19.52;4.10;;;7.10;99.90;;;;;;4963264;28;20302;-83
2023/01/10 06:55:31;;;;;;;24.00;3.80;;;7.10;99.90;;;;;;4965947;28;20435;-84
2023/01/10 06:58:05;;;;;;;16.98;4.22;;;7.20;99.90;;;;;;4950068;28;20472;-88
2023/01/10 07:00:31;;;;;;;18.88;3.92;;;7.30;99.90;;;;;;4966562;28;20042;-88
2023/01/10 07:02:58;;;;;;;19.05;3.95;;;7.10;99.90;;;;;;4967653;28;20097;-84
2023/01/10 07:05:24;;;;;;;18.10;3.30;;;7.30;99.90;;;;;;4965731;28;20108;-87
2023/01/10 07:07:53;;;;;;;18.73;3.97;;;6.60;99.90;;;;;;4971477;28;20050;-89
2023/01/10 07:10:19;;;;;;;25.88;4.10;;;7.10;99.90;;;;;;4953729;28;20430;-82
2023/01/10 07:12:45;;;;;;;22.65;3.83;;;7.10;99.90;;;;;;4965838;28;20053;-82
2023/01/10 07:15:11;;;;;;;13.82;3.50;;;7.10;99.90;;;;;;4984331;28;20058;-83
2023/01/10 07:17:36;;;;;;;18.80;3.60;;;7.00;99.90;;;;;;4955740;28;20125;-84
2023/01/10 07:20:02;;;;;;;14.65;3.10;;;7.20;99.90;;;;;;4961834;28;20061;-82
2023/01/10 07:22:28;;;;;;;17.30;3.55;;;7.20;99.90;;;;;;4967801;28;20050;-87
2023/01/10 07:24:54;;;;;;;20.73;3.72;;;7.20;99.90;;;;;;4988920;28;20488;-83
2023/01/10 07:27:19;;;;;;;19.33;3.88;;;7.10;99.90;;;;;;4987679;28;20055;-83
2023/01/10 07:29:45;;;;;;;23.48;4.00;;;7.20;99.90;;;;;;4972863;28;20046;-83
2023/01/10 07:32:11;;;;;;;27.73;4.88;;;7.10;99.90;;;;;;4968733;28;20096;-83
2023/01/10 07:34:37;;;;;;;17.45;3.35;;;7.20;99.90;;;;;;4965293;28;20523;-83
2023/01/10 07:37:02;;;;;;;18.10;3.35;;;7.20;99.90;;;;;;4957097;28;20039;-82
2023/01/10 07:39:28;;;;;;;15.68;3.40;;;7.10;99.90;;;;;;4970762;28;20054;-82
2023/01/10 07:41:55;;;;;;;22.63;3.42;;;7.10;99.90;;;;;;4956117;28;20051;-83
2023/01/10 07:44:21;;;;;;;19.70;3.35;;;7.00;99.90;;;;;;4987310;28;20046;-83
2023/01/10 07:46:47;;;;;;;20.45;3.50;;;6.90;99.90;;;;;;4988164;28;20054;-83
2023/01/10 07:49:13;;;;;;;17.70;3.10;;;7.00;99.90;;;;;;4972369;28;20046;-82
2023/01/10 07:51:39;;;;;;;21.85;3.78;;;6.90;99.90;;;;;;4982820;28;20047;-84
2023/01/10 07:54:05;;;;;;;15.75;3.35;;;6.90;99.90;;;;;;4952898;28;20424;-82
2023/01/10 07:56:31;;;;;;;19.60;4.38;;;6.90;99.90;;;;;;4967756;28;20069;-84
2023/01/10 07:58:57;;;;;;;14.23;3.22;;;6.80;99.90;;;;;;4969339;28;20050;-84
2023/01/10 08:01:23;;;;;;;14.48;2.70;;;6.80;99.90;;;;;;4969776;28;20050;-83
2023/01/10 08:03:49;;;;;;;16.67;3.15;;;6.80;99.90;;;;;;4972055;28;20047;-83
2023/01/10 08:06:15;;;;;;;12.45;2.40;;;6.80;99.90;;;;;;4972863;28;20049;-82
2023/01/10 08:08:40;;;;;;;10.70;2.50;;;6.70;99.90;;;;;;4984585;28;20600;-82
2023/01/10 08:11:06;;;;;;;12.70;2.72;;;6.70;99.90;;;;;;4954963;28;20050;-83
2023/01/10 08:13:32;;;;;;;13.18;2.85;;;6.80;99.90;;;;;;4983462;28;20136;-81
2023/01/10 08:15:58;;;;;;;16.05;4.00;;;6.80;99.90;;;;;;4961109;28;20058;-83
2023/01/10 08:18:25;;;;;;;18.85;3.05;;;7.00;99.90;;;;;;4949983;28;20039;-81
2023/01/10 08:20:52;;;;;;;15.95;3.67;;;6.90;99.90;;;;;;4949472;28;20043;-82
2023/01/10 08:23:19;;;;;;;13.40;3.10;;;6.90;99.90;;;;;;4966305;28;20052;-81
2023/01/10 08:25:45;;;;;;;20.23;3.67;;;7.00;99.90;;;;;;4936175;28;20146;-82
2023/01/10 08:28:12;;;;;;;9.30;2.63;;;6.90;99.90;;;;;;4983344;28;20455;-81
2023/01/10 08:30:37;;;;;;;13.77;3.65;;;7.10;99.90;;;;;;4984641;28;20086;-83
2023/01/10 08:33:04;;;;;;;14.07;2.97;;;7.00;99.90;;;;;;4962307;28;20077;-83
2023/01/10 08:35:35;;;;;;;18.48;3.40;;;7.00;99.90;;;;;;5005734;28;20046;-82
2023/01/10 08:38:01;;;;;;;17.55;2.90;;;7.10;99.90;;;;;;4971374;28;20539;-82
2023/01/10 08:40:26;;;;;;;12.90;2.88;;;7.10;99.90;;;;;;4982750;28;20057;-82
2023/01/10 08:43:00;;;;;;;18.60;3.67;;;5.90;99.90;;;;;;4951856;28;20094;-82
2023/01/10 08:45:26;;;;;;;13.43;3.38;;;7.10;99.90;;;;;;4994438;28;20031;-82
2023/01/10 08:47:52;;;;;;;14.05;3.22;;;7.00;99.90;;;;;;4973924;28;20061;-79
2023/01/10 08:50:18;;;;;;;10.20;2.30;;;7.20;99.90;;;;;;4961866;28;20089;-83
2023/01/10 08:52:44;;;;;;;15.18;2.72;;;7.10;99.90;;;;;;4964625;28;20054;-83
2023/01/10 08:55:10;;;;;;;15.73;3.88;;;7.10;99.90;;;;;;4982847;28;20452;-82
2023/01/10 08:57:36;;;;;;;16.42;3.00;;;7.50;99.90;;;;;;4957399;28;20042;-82
2023/01/10 09:00:03;;;;;;;13.55;3.50;;;7.20;99.90;;;;;;4966773;28;21029;-82
2023/01/10 09:02:28;;;;;;;8.55;2.38;;;7.20;99.90;;;;;;4965312;28;20049;-82
2023/01/10 09:04:54;;;;;;;12.93;2.90;;;7.30;99.90;;;;;;4961244;28;20059;-83
2023/01/10 09:07:20;;;;;;;12.85;2.80;;;7.30;99.90;;;;;;4964651;28;20129;-82
2023/01/10 09:09:46;;;;;;;15.23;3.03;;;7.30;99.90;;;;;;4959136;28;20133;-82
2023/01/10 09:14:56;;;;;;;9.60;2.55;;;7.30;99.90;;;;;;4976301;28;20061;-82
2023/01/10 09:17:22;;;;;;;13.05;2.95;;;7.30;99.90;;;;;;4964623;28;20039;-82
2023/01/10 09:19:47;;;;;;;10.38;2.38;;;7.30;99.90;;;;;;4965537;28;20387;-83
2023/01/10 09:22:13;;;;;;;11.40;2.60;;;7.30;99.90;;;;;;4945908;28;20050;-84
2023/01/10 09:24:40;;;;;;;9.80;3.17;;;7.30;99.90;;;;;;4965551;28;20176;-84
2023/01/10 09:27:06;;;;;;;12.05;2.60;;;7.30;99.90;;;;;;4979412;28;20051;-81
2023/01/10 09:29:32;;;;;;;18.60;3.50;;;7.30;99.90;;;;;;4966321;28;20054;-81
2023/01/10 09:31:58;;;;;;;12.43;2.78;;;7.30;99.90;;;;;;4963916;28;20179;-82
2023/01/10 09:34:23;;;;;;;16.17;2.78;;;7.30;99.90;;;;;;4961430;28;20129;-82
2023/01/10 09:36:49;;;;;;;11.07;2.70;;;7.30;99.90;;;;;;4931044;28;20631;-82
2023/01/10 09:39:15;;;;;;;13.35;2.40;;;7.30;99.90;;;;;;4963618;28;20042;-83
2023/01/10 09:42:02;;;;;;;14.57;2.85;;;7.30;99.90;;;;;;4960939;28;20411;-82
2023/01/10 09:44:59;;;;;;;11.88;3.13;;;7.30;99.90;;;;;;4966996;28;20054;-81
2023/01/10 09:47:32;;;;;;;17.27;3.33;;;7.30;99.90;;;;;;4962577;28;20581;-83
2023/01/10 09:50:10;;;;;;;15.10;2.95;;;7.30;99.90;;;;;;4976335;28;20058;-82
2023/01/10 09:53:09;;;;;;;16.00;3.47;;;7.30;99.90;;;;;;4978603;28;21827;-82
2023/01/10 09:55:37;;;;;;;17.17;2.90;;;7.30;99.90;;;;;;4936859;28;20062;-83
2023/01/10 09:58:09;;;;;;;12.77;2.85;;;7.30;99.90;;;;;;4963321;28;20053;-82
2023/01/10 10:00:52;;;;;;;12.45;3.00;;;7.30;99.90;;;;;;4977908;28;20464;-82
2023/01/10 10:03:24;;;;;;;12.02;3.00;;;7.30;99.90;;;;;;4960399;28;20046;-83
2023/01/10 10:05:50;;;;;;;13.48;2.67;;;7.30;99.90;;;;;;4980200;28;20073;-83
2023/01/10 10:08:18;;;;;;;19.38;3.70;;;7.30;99.90;;;;;;4977674;28;20499;-83
2023/01/10 10:11:14;;;;;;;14.50;2.80;;;7.30;99.90;;;;;;4980475;28;20061;-84
2023/01/10 10:13:49;;;;;;;20.33;4.03;;;7.30;99.90;;;;;;4981022;28;20058;-83
2023/01/10 10:16:33;;;;;;;16.00;3.22;;;7.30;99.90;;;;;;4974533;28;20507;-83
2023/01/10 10:19:11;;;;;;;16.27;3.13;;;7.30;99.90;;;;;;4979101;28;20045;-82
2023/01/10 10:22:05;;;;;;;12.93;3.20;;;7.30;99.90;;;;;;4980934;28;20051;-82
2023/01/10 10:24:58;;;;;;;13.45;2.97;;;7.30;99.90;;;;;;4980106;28;20050;-83
2023/01/10 10:27:36;;;;;;;19.17;3.60;;;7.30;99.90;;;;;;4978912;28;20049;-82
2023/01/10 10:30:25;;;;;;;19.27;3.35;;;7.30;99.90;;;;;;4966494;28;20129;-82
2023/01/10 10:33:06;;;;;;;18.30;3.38;;;7.40;99.90;;;;;;4965001;28;20043;-82
2023/01/10 10:35:38;;;;;;;16.23;3.30;;;7.40;99.90;;;;;;4983776;28;20496;-82
2023/01/10 10:38:15;;;;;;;18.58;3.50;;;7.30;99.90;;;;;;4964979;28;20046;-79
2023/01/10 10:40:44;;;;;;;19.15;3.90;;;7.30;99.90;;;;;;4968369;28;20104;-81
2023/01/10 10:43:17;;;;;;;15.45;2.97;;;7.40;99.90;;;;;;4971840;28;20050;-85
2023/01/10 10:46:23;;;;;;;19.88;3.33;;;7.30;99.90;;;;;;4998671;28;20106;-81
2023/01/10 10:48:57;;;;;;;17.83;3.15;;;7.30;99.90;;;;;;4962665;28;20503;-82
2023/01/10 10:51:37;;;;;;;21.02;3.50;;;7.30;99.90;;;;;;4981555;28;20101;-82
2023/01/10 10:57:12;;;;;;;22.90;4.15;;;7.20;99.90;;;;;;4990900;28;20437;-82
2023/01/10 10:59:37;;;;;;;18.30;3.70;;;7.40;99.90;;;;;;4965255;28;20053;-82
2023/01/10 11:02:19;;;;;;;21.42;4.15;;;7.30;99.90;;;;;;4980985;28;20046;-85
2023/01/10 11:04:46;;;;;;;14.07;3.40;;;7.40;99.90;;;;;;4982497;28;20057;-84
2023/01/10 11:07:18;;;;;;;16.40;3.67;;;7.50;99.90;;;;;;4966981;28;20046;-86
2023/01/10 11:12:23;;;;;;;15.15;3.38;;;7.30;99.90;;;;;;4979564;28;20054;-86
2023/01/10 11:14:51;;;;;;;19.67;4.07;;;7.30;99.90;;;;;;4966020;28;20115;-86
2023/01/10 11:17:32;;;;;;;20.05;4.05;;;7.40;99.90;;;;;;4978775;28;20047;-85
2023/01/10 11:20:00;;;;;;;25.67;4.40;;;7.30;99.90;;;;;;4960741;28;20116;-84
2023/01/10 11:22:49;;;;;;;21.33;3.75;;;7.10;99.90;;;;;;4981042;28;20053;-82
2023/01/10 11:25:21;;;;;;;19.10;3.80;;;7.20;99.90;;;;;;4978676;28;20053;-83
2023/01/10 11:27:54;;;;;;;21.65;4.03;;;7.10;99.90;;;;;;4961910;28;20043;-83
2023/01/10 11:30:29;;;;;;;17.88;3.92;;;7.10;99.90;;;;;;4962113;28;20045;-85
2023/01/10 11:33:06;;;;;;;17.85;3.58;;;7.10;99.90;;;;;;4981947;28;20125;-80
2023/01/10 11:35:37;;;;;;;22.33;4.18;;;7.10;99.90;;;;;;4964025;28;20081;-83
2023/01/10 11:38:06;;;;;;;14.43;3.65;;;7.00;99.90;;;;;;4958449;28;21849;-82
2023/01/10 11:40:35;;;;;;;16.88;4.13;;;7.00;99.90;;;;;;4964338;28;20077;-80
2023/01/10 11:43:25;;;;;;;17.27;4.18;;;7.10;99.90;;;;;;4996930;28;20081;-82
2023/01/10 11:46:01;;;;;;;15.40;4.00;;;6.90;99.90;;;;;;4978378;28;20045;-82
2023/01/10 11:48:42;;;;;;;17.83;4.45;;;6.90;99.90;;;;;;4977207;28;20503;-81
2023/01/10 11:51:22;;;;;;;16.42;4.15;;;6.90;99.90;;;;;;4979735;28;20513;-83
2023/01/10 11:53:53;;;;;;;18.30;4.82;;;7.00;99.90;;;;;;4968762;28;20057;-83
2023/01/10 11:56:25;;;;;;;20.00;3.78;;;6.90;99.90;;;;;;4959321;28;20046;-84
2023/01/10 11:58:52;;;;;;;22.13;4.72;;;6.80;99.90;;;;;;4960977;28;20057;-82
2023/01/10 12:01:47;;;;;;;17.25;4.45;;;6.70;99.90;;;;;;4963598;28;20558;-83
2023/01/10 12:04:20;;;;;;;19.60;5.60;;;6.90;99.90;;;;;;4981025;28;20038;-82
2023/01/10 12:06:49;;;;;;;18.42;5.18;;;6.70;99.90;;;;;;4979323;28;20045;-81
2023/01/10 12:09:38;;;;;;;20.23;5.63;;;6.90;99.90;;;;;;4963515;28;20122;-82
2023/01/10 12:12:26;;;;;;;20.40;5.30;;;6.70;99.90;;;;;;4976813;28;20050;-81
2023/01/10 12:14:58;;;;;;;19.20;5.55;;;5.60;99.90;;;;;;4986237;28;20127;-82
2023/01/10 12:17:35;;;;;;;18.30;4.88;;;6.80;99.90;;;;;;4966431;28;20046;-81
2023/01/10 12:20:11;;;;;;;12.55;4.57;;;6.80;99.90;;;;;;4963531;28;20051;-82
2023/01/10 12:22:44;;;;;;;21.70;5.22;;;6.60;99.90;;;;;;4981004;28;20124;-81
2023/01/10 12:25:33;;;;;;;21.90;5.47;;;6.70;99.90;;;;;;4977629;28;20050;-82
2023/01/10 12:28:00;;;;;;;26.05;5.18;;;6.60;99.90;;;;;;4962326;28;20460;-81
2023/01/10 12:30:42;;;;;;;22.25;5.55;;;6.60;99.90;;;;;;4968632;28;20049;-82
2023/01/10 12:33:15;;;;;;;16.35;4.82;;;6.50;99.90;;;;;;4977479;28;20536;-81
2023/01/10 12:36:01;;;;;;;19.23;5.15;;;6.60;99.90;;;;;;4972201;28;20078;-82
2023/01/10 12:44:29;;;;;;;18.42;5.30;;;8.00;99.90;;;;;;4977023;28;20129;-83
2023/01/10 12:47:24;;;;;;;17.65;4.25;;;6.50;99.90;;;;;;4981764;28;20069;-83
2023/01/10 12:49:55;;;;;;;19.73;5.25;;;6.50;99.90;;;;;;4980357;28;20062;-83
2023/01/10 12:52:45;;;;;;;19.80;4.63;;;6.50;99.90;;;;;;4981673;28;20062;-83
2023/01/10 12:55:16;;;;;;;20.73;4.90;;;6.40;99.90;;;;;;4994401;28;20524;-82
2023/01/10 12:57:47;;;;;;;20.38;4.47;;;6.50;99.90;;;;;;4986945;28;20062;-82
2023/01/10 13:00:27;;;;;;;14.68;4.25;;;6.40;99.90;;;;;;4960947;28;20046;-82
2023/01/10 13:02:59;;;;;;;21.77;4.78;;;6.40;99.90;;;;;;4982513;28;20487;-80
2023/01/10 13:05:27;;;;;;;18.33;3.97;;;6.30;99.90;;;;;;4978259;28;20043;-82
2023/01/10 13:08:03;;;;;;;17.58;3.90;;;6.40;99.90;;;;;;4975425;28;20042;-82
2023/01/10 13:10:30;;;;;;;21.05;4.50;;;6.40;99.90;;;;;;4979929;28;20082;-82
2023/01/10 13:12:59;;;;;;;20.90;4.05;;;6.30;99.90;;;;;;4976435;28;20145;-81
2023/01/10 13:15:33;;;;;;;23.02;4.40;;;6.40;99.90;;;;;;4980921;28;20129;-83
2023/01/10 13:18:15;;;;;;;15.18;3.97;;;6.30;99.90;;;;;;4965897;28;20145;-83
2023/01/10 13:20:42;;;;;;;14.30;4.22;;;6.40;99.90;;;;;;4965446;28;20116;-82
2023/01/10 13:23:38;;;;;;;19.63;4.30;;;6.40;99.90;;;;;;4961547;28;20054;-81
2023/01/10 13:26:10;;;;;;;21.20;3.95;;;6.30;99.90;;;;;;4958553;28;20065;-82
2023/01/10 13:28:40;;;;;;;22.30;3.88;;;6.30;99.90;;;;;;4979861;28;20049;-82
2023/01/10 13:31:21;;;;;;;13.10;3.53;;;6.70;99.90;;;;;;4984504;28;20056;-84
2023/01/10 13:33:57;;;;;;;22.60;4.57;;;6.20;99.90;;;;;;4979170;28;20046;-82